Time;durP1;ratioP1;P1;durP2;ratioP2;P2;SDS_P1;SDS_P2;PMS_P1;PMS_P2;Temp;Humidity;BMP_temperature;BMP_pressure;BME280_temperature;BME280_humidity;BME280_pressure;Samples;Min_cycle;Max_cycle;Signal;HPM_P1;HPM_P2
2022/03/03 00:02:01;;;;;;;2.97;2.00;;;;;;;22.26;nan;99377.28;5133750;28;20475;-59
2022/03/03 00:04:26;;;;;;;2.60;1.60;;;;;;;22.24;nan;99380.44;5133629;28;20119;-58
2022/03/03 00:06:52;;;;;;;2.92;1.83;;;;;;;22.22;nan;99382.84;5133472;28;20045;-59
2022/03/03 00:09:17;;;;;;;2.72;1.77;;;;;;;22.22;nan;99382.03;5133520;28;20376;-59
2022/03/03 00:11:43;;;;;;;2.50;1.70;;;;;;;22.21;nan;99372.06;5132416;28;20460;-59
2022/03/03 00:14:08;;;;;;;2.70;1.90;;;;;;;22.21;nan;99383.19;5133166;28;20039;-59
2022/03/03 00:16:34;;;;;;;2.90;1.85;;;;;;;22.18;nan;99372.84;5133437;28;20039;-59
2022/03/03 00:18:59;;;;;;;2.72;1.77;;;;;;;22.17;nan;99365.66;5133339;28;20051;-59
2022/03/03 00:21:25;;;;;;;3.10;2.03;;;;;;;22.15;nan;99362.47;5132781;28;20452;-59
2022/03/03 00:23:50;;;;;;;2.88;2.00;;;;;;;22.14;nan;99372.00;5133276;28;20418;-59
2022/03/03 00:26:16;;;;;;;3.38;1.92;;;;;;;22.11;nan;99370.78;5133186;28;20039;-59
2022/03/03 00:28:42;;;;;;;2.90;2.03;;;;;;;22.13;nan;99379.56;5133123;28;20062;-59
2022/03/03 00:31:07;;;;;;;3.70;2.22;;;;;;;22.13;nan;99378.75;5133116;28;20043;-59
2022/03/03 00:33:33;;;;;;;4.13;2.38;;;;;;;22.11;nan;99375.56;5132828;28;20113;-59
2022/03/03 00:35:59;;;;;;;3.38;2.55;;;;;;;22.12;nan;99377.16;5133253;28;20067;-59
2022/03/03 00:38:24;;;;;;;2.92;1.95;;;;;;;22.26;nan;99377.28;5114520;28;20045;-59
2022/03/03 00:40:50;;;;;;;3.03;2.03;;;;;;;22.88;nan;99373.75;5133042;28;20050;-59
2022/03/03 00:43:15;;;;;;;2.92;1.98;;;;;;;23.82;nan;99370.94;5132615;28;20134;-59
2022/03/03 00:45:41;;;;;;;2.90;2.00;;;;;;;24.03;nan;99359.81;5132848;28;20050;-58
2022/03/03 00:48:06;;;;;;;3.28;2.03;;;;;;;23.77;nan;99360.16;5114334;28;20047;-59
2022/03/03 00:50:32;;;;;;;2.72;1.83;;;;;;;23.47;nan;99360.47;5132812;28;20031;-58
2022/03/03 00:52:58;;;;;;;3.00;2.05;;;;;;;23.22;nan;99363.19;5132684;28;20046;-59
2022/03/03 00:55:24;;;;;;;3.33;2.15;;;;;;;23.01;nan;99366.66;5132635;28;20055;-59
2022/03/03 00:57:49;;;;;;;2.55;1.83;;;;;;;22.85;nan;99366.94;5132597;28;20083;-59
2022/03/03 01:00:16;;;;;;;2.70;1.95;;;;;;;22.71;nan;99361.25;5132671;28;20047;-59
2022/03/03 01:02:41;;;;;;;3.40;2.03;;;;;;;22.62;nan;99372.75;5132629;28;20047;-59
2022/03/03 01:05:08;;;;;;;2.85;2.00;;;;;;;22.53;nan;99366.75;5132554;28;20107;-59
2022/03/03 01:07:33;;;;;;;2.92;1.92;;;;;;;22.44;nan;99367.09;5132426;28;20043;-59
2022/03/03 01:09:59;;;;;;;2.85;1.80;;;;;;;22.39;nan;99361.84;5131779;27;20088;-59
2022/03/03 01:12:24;;;;;;;3.00;2.00;;;;;;;22.37;nan;99361.44;5132616;28;20550;-58
2022/03/03 01:14:50;;;;;;;2.47;1.80;;;;;;;22.33;nan;99366.19;5132219;28;20043;-59
2022/03/03 01:17:15;;;;;;;3.63;2.25;;;;;;;22.29;nan;99359.81;5132417;28;20108;-58
2022/03/03 01:19:41;;;;;;;3.00;2.10;;;;;;;22.28;nan;99362.94;5132608;28;20050;-58
2022/03/03 01:22:07;;;;;;;3.10;2.10;;;;;;;22.25;nan;99361.75;5132368;28;20039;-59
2022/03/03 01:24:32;;;;;;;2.75;1.80;;;;;;;22.22;nan;99360.53;5132290;28;20058;-58
2022/03/03 01:26:58;;;;;;;3.10;2.05;;;;;;;22.21;nan;99349.75;5132256;28;20055;-59
2022/03/03 01:29:24;;;;;;;2.65;1.98;;;;;;;22.20;nan;99359.31;5132310;28;20118;-58
2022/03/03 01:31:49;;;;;;;2.38;1.70;;;;;;;22.17;nan;99346.16;5132423;28;20039;-58
2022/03/03 01:34:15;;;;;;;2.63;1.90;;;;;;;22.14;nan;99338.56;5131697;28;20407;-59
2022/03/03 01:36:40;;;;;;;2.65;2.03;;;;;;;22.16;nan;99344.56;5119269;28;20140;-59
2022/03/03 01:39:06;;;;;;;3.22;2.17;;;;;;;22.16;nan;99342.59;5091274;28;20074;-58
2022/03/03 01:41:33;;;;;;;2.53;1.80;;;;;;;22.30;nan;99344.69;5091306;28;20127;-59
2022/03/03 01:43:59;;;;;;;2.60;1.80;;;;;;;22.83;nan;99340.63;5091195;28;20052;-59
2022/03/03 01:46:25;;;;;;;2.83;2.20;;;;;;;23.50;nan;99331.75;5091271;28;20051;-59
2022/03/03 01:48:50;;;;;;;2.95;2.03;;;;;;;24.20;nan;99327.47;5090637;28;20416;-59
2022/03/03 01:51:16;;;;;;;3.35;2.20;;;;;;;24.64;nan;99321.44;5090889;28;20044;-59
2022/03/03 01:53:42;;;;;;;2.92;1.90;;;;;;;24.40;nan;99325.88;5090883;28;20074;-59
2022/03/03 01:56:08;;;;;;;2.90;2.17;;;;;;;24.02;nan;99319.09;5090753;28;20381;-59
2022/03/03 01:58:33;;;;;;;3.00;1.98;;;;;;;23.67;nan;99311.47;5090887;28;20040;-59
2022/03/03 02:00:59;;;;;;;2.72;1.88;;;;;;;23.41;nan;99317.38;5091033;28;20050;-59
2022/03/03 02:03:25;;;;;;;3.22;2.15;;;;;;;23.18;nan;99317.72;5090800;28;20431;-59
2022/03/03 02:05:50;;;;;;;2.72;1.90;;;;;;;23.00;nan;99321.25;5090788;28;20480;-59
2022/03/03 02:08:16;;;;;;;2.72;1.90;;;;;;;22.84;nan;99312.34;5090605;28;20040;-60
2022/03/03 02:10:42;;;;;;;2.53;1.70;;;;;;;22.74;nan;99308.31;5090811;28;20580;-59
2022/03/03 02:13:08;;;;;;;3.00;2.05;;;;;;;22.66;nan;99322.63;5090656;28;20044;-59
2022/03/03 02:15:33;;;;;;;2.80;1.95;;;;;;;22.59;nan;99312.22;5090254;28;20093;-58
2022/03/03 02:17:59;;;;;;;3.17;1.88;;;;;;;22.54;nan;99318.16;5090518;28;20043;-59
2022/03/03 02:20:30;;;;;;;3.00;2.17;;;;;;;22.46;nan;99308.97;5090687;28;20084;-59
2022/03/03 02:22:57;;;;;;;3.00;1.95;;;;;;;22.44;nan;99305.75;5090574;28;20040;-59
2022/03/03 02:25:23;;;;;;;3.10;2.10;;;;;;;22.39;nan;99308.09;5090483;28;20059;-58
2022/03/03 02:27:49;;;;;;;3.30;2.20;;;;;;;22.36;nan;99304.13;5090186;28;20044;-58
2022/03/03 02:30:17;;;;;;;3.38;2.20;;;;;;;22.34;nan;99294.53;5090364;28;20047;-58
2022/03/03 02:32:44;;;;;;;2.67;1.80;;;;;;;22.31;nan;99304.47;5090079;28;20047;-58
2022/03/03 02:35:10;;;;;;;3.00;2.00;;;;;;;22.29;nan;99304.06;5090170;28;20527;-58
2022/03/03 02:37:38;;;;;;;3.20;1.90;;;;;;;22.28;nan;99299.66;5070470;28;20049;-58
2022/03/03 02:40:07;;;;;;;2.72;1.85;;;;;;;22.27;nan;99300.84;5090458;28;20126;-58
2022/03/03 02:42:33;;;;;;;2.80;1.83;;;;;;;22.27;nan;99291.69;5090354;28;20596;-58
2022/03/03 02:44:58;;;;;;;3.25;2.10;;;;;;;22.24;nan;99296.06;5090084;28;20044;-58
2022/03/03 02:47:24;;;;;;;2.90;2.10;;;;;;;22.23;nan;99288.91;5090237;28;20089;-58
2022/03/03 02:49:49;;;;;;;3.38;2.00;;;;;;;22.22;nan;99296.47;5090258;28;20121;-58
2022/03/03 02:52:15;;;;;;;2.80;2.00;;;;;;;22.18;nan;99294.81;5090160;28;20127;-58
2022/03/03 02:54:40;;;;;;;2.60;1.80;;;;;;;22.19;nan;99293.63;5089938;28;20040;-58
2022/03/03 02:59:50;;;;;;;2.58;1.77;;;;;;;22.16;nan;99280.50;5090174;28;20043;-58
2022/03/03 03:02:16;;;;;;;2.85;1.83;;;;;;;22.15;nan;99276.13;5089978;28;20048;-58
2022/03/03 03:04:41;;;;;;;2.55;1.83;;;;;;;22.16;nan;99283.28;5089970;28;20422;-58
2022/03/03 03:07:06;;;;;;;2.65;1.80;;;;;;;22.16;nan;99280.50;5071794;28;20044;-58
2022/03/03 03:09:32;;;;;;;3.38;2.10;;;;;;;22.15;nan;99287.25;5089815;28;20043;-58
2022/03/03 03:11:57;;;;;;;2.53;1.75;;;;;;;22.14;nan;99275.28;5089891;28;20040;-58
2022/03/03 03:14:23;;;;;;;3.13;2.20;;;;;;;22.11;nan;99269.72;5089648;28;20048;-58
2022/03/03 03:16:48;;;;;;;2.58;1.98;;;;;;;22.13;nan;99270.09;5089617;28;20139;-58
2022/03/03 03:19:14;;;;;;;3.25;2.20;;;;;;;22.13;nan;99267.31;5089691;28;20112;-58
2022/03/03 03:21:39;;;;;;;2.85;2.05;;;;;;;22.13;nan;99267.31;5089836;28;20043;-58
2022/03/03 03:24:05;;;;;;;3.35;2.30;;;;;;;22.12;nan;99268.50;5089660;28;20055;-58
2022/03/03 03:26:30;;;;;;;3.40;2.25;;;;;;;22.09;nan;99263.72;5089616;28;20393;-58
2022/03/03 03:28:56;;;;;;;3.00;2.10;;;;;;;22.09;nan;99266.50;5089591;28;20131;-58
2022/03/03 03:31:21;;;;;;;2.90;2.05;;;;;;;22.11;nan;99264.13;5089420;28;20075;-58
2022/03/03 03:33:46;;;;;;;3.10;2.00;;;;;;;22.10;nan;99268.13;5090586;28;20048;-58
2022/03/03 03:36:12;;;;;;;2.88;1.92;;;;;;;22.05;nan;99260.06;5092850;28;20044;-58
2022/03/03 03:38:38;;;;;;;2.95;2.10;;;;;;;22.08;nan;99257.38;5093090;28;20051;-58
2022/03/03 03:41:03;;;;;;;3.85;2.30;;;;;;;22.07;nan;99260.47;5093114;28;20105;-57
2022/03/03 03:43:29;;;;;;;3.83;2.28;;;;;;;22.07;nan;99257.69;5093176;28;20032;-57
2022/03/03 03:45:54;;;;;;;2.78;2.10;;;;;;;22.06;nan;99254.13;5093274;28;20043;-58
2022/03/03 03:48:20;;;;;;;3.00;2.17;;;;;;;22.08;nan;99256.53;5092955;28;20054;-57
2022/03/03 03:50:45;;;;;;;2.97;2.20;;;;;;;22.05;nan;99248.94;5093129;28;20040;-57
2022/03/03 03:53:11;;;;;;;3.53;2.30;;;;;;;22.07;nan;99249.34;5092829;28;20046;-57
2022/03/03 03:55:36;;;;;;;3.22;2.08;;;;;;;22.07;nan;99247.34;5092681;28;20047;-57
2022/03/03 03:58:02;;;;;;;2.80;1.90;;;;;;;22.05;nan;99232.22;5092935;28;20040;-57
2022/03/03 04:00:28;;;;;;;3.08;2.00;;;;;;;22.05;nan;99237.78;5092030;28;20043;-57
2022/03/03 04:02:54;;;;;;;3.58;2.33;;;;;;;22.06;nan;99233.81;5092874;28;20067;-57
2022/03/03 04:05:20;;;;;;;3.00;2.10;;;;;;;22.05;nan;99233.03;5092526;28;20051;-57
2022/03/03 04:07:45;;;;;;;2.85;1.77;;;;;;;22.04;nan;99228.66;5092830;28;20048;-57
2022/03/03 04:10:11;;;;;;;2.58;1.88;;;;;;;22.07;nan;99229.84;5092608;28;20475;-57
2022/03/03 04:12:38;;;;;;;3.58;2.03;;;;;;;22.45;nan;99220.97;5092706;28;20043;-58
2022/03/03 04:15:04;;;;;;;2.90;2.05;;;;;;;23.05;nan;99226.00;5092285;28;20437;-57
2022/03/03 04:17:29;;;;;;;3.22;2.28;;;;;;;23.75;nan;99217.34;5092201;28;20321;-57
2022/03/03 04:19:54;;;;;;;2.83;1.90;;;;;;;24.42;nan;99211.63;5092346;28;20047;-57
2022/03/03 04:22:20;;;;;;;2.72;1.83;;;;;;;24.84;nan;99211.88;5092336;28;20458;-57
2022/03/03 04:24:46;;;;;;;2.75;2.00;;;;;;;24.52;nan;99218.41;5092195;28;20080;-57
2022/03/03 04:27:11;;;;;;;2.40;1.80;;;;;;;24.12;nan;99212.09;5092429;28;20443;-57
2022/03/03 04:29:36;;;;;;;2.97;2.10;;;;;;;23.76;nan;99205.75;5091734;28;20050;-57
2022/03/03 04:32:03;;;;;;;3.13;2.30;;;;;;;23.45;nan;99204.53;5091943;28;20040;-57
2022/03/03 04:34:28;;;;;;;3.45;2.15;;;;;;;23.22;nan;99204.13;5092480;28;20055;-57
2022/03/03 04:36:54;;;;;;;2.83;2.00;;;;;;;23.01;nan;99200.09;5091691;28;20051;-57
2022/03/03 04:39:20;;;;;;;3.10;2.20;;;;;;;22.86;nan;99198.47;5091932;28;20052;-57
2022/03/03 04:41:45;;;;;;;3.60;2.35;;;;;;;22.75;nan;99203.97;5092037;28;20059;-57
2022/03/03 04:44:11;;;;;;;3.28;2.38;;;;;;;22.66;nan;99208.31;5091999;28;20036;-57
2022/03/03 04:46:36;;;;;;;2.88;1.90;;;;;;;22.60;nan;99204.31;5090902;28;20526;-57
2022/03/03 04:49:02;;;;;;;2.78;2.00;;;;;;;22.50;nan;99198.28;5092058;28;20048;-57
2022/03/03 04:51:31;;;;;;;2.95;1.73;;;;;;;22.47;nan;99196.28;5092067;28;20044;-57
2022/03/03 04:53:57;;;;;;;3.00;2.00;;;;;;;22.42;nan;99188.28;5091942;28;20040;-57
2022/03/03 04:56:23;;;;;;;2.72;1.90;;;;;;;22.38;nan;99193.06;5091617;28;20055;-58
2022/03/03 04:58:49;;;;;;;3.05;2.13;;;;;;;22.36;nan;99192.66;5091946;28;20036;-57
2022/03/03 05:01:16;;;;;;;2.97;2.10;;;;;;;22.34;nan;99192.22;5091815;28;20047;-57
2022/03/03 05:03:41;;;;;;;3.28;2.28;;;;;;;22.31;nan;99186.66;5091774;28;20677;-57
2022/03/03 05:06:07;;;;;;;3.78;2.40;;;;;;;22.29;nan;99181.47;5092073;28;20044;-56
2022/03/03 05:08:32;;;;;;;3.30;2.05;;;;;;;22.24;nan;99177.06;5091736;28;20384;-57
2022/03/03 05:10:57;;;;;;;2.92;2.00;;;;;;;22.26;nan;99176.66;5091758;28;20415;-57
2022/03/03 05:13:23;;;;;;;2.92;2.20;;;;;;;22.24;nan;99174.28;5091635;28;20059;-57
2022/03/03 05:15:48;;;;;;;3.20;2.08;;;;;;;22.23;nan;99164.31;5091142;28;20125;-57
2022/03/03 05:18:14;;;;;;;3.45;2.30;;;;;;;22.22;nan;99178.66;5091569;28;20057;-56
2022/03/03 05:20:39;;;;;;;3.33;2.50;;;;;;;22.20;nan;99167.88;5091102;28;20032;-56
2022/03/03 05:23:05;;;;;;;3.70;2.28;;;;;;;22.19;nan;99165.50;5091343;28;20048;-56
2022/03/03 05:25:30;;;;;;;3.15;2.30;;;;;;;22.15;nan;99164.69;5091410;28;20050;-57
2022/03/03 05:28:00;;;;;;;3.10;2.28;;;;;;;22.13;nan;99161.47;5091321;28;20491;-57
2022/03/03 05:30:25;;;;;;;3.15;2.20;;;;;;;22.15;nan;99159.91;5091265;28;20507;-57
2022/03/03 05:32:51;;;;;;;3.28;2.40;;;;;;;22.14;nan;99163.06;5091138;28;20055;-56
2022/03/03 05:35:18;;;;;;;3.50;2.20;;;;;;;22.13;nan;99155.91;5091053;28;20055;-57
2022/03/03 05:37:46;;;;;;;3.60;2.30;;;;;;;22.13;nan;99164.25;5091043;28;20097;-57
2022/03/03 05:40:11;;;;;;;3.67;2.47;;;;;;;22.09;nan;99161.47;5090964;28;20133;-57
2022/03/03 05:42:37;;;;;;;3.22;2.30;;;;;;;22.14;nan;99165.84;5091363;28;20470;-57
2022/03/03 05:45:03;;;;;;;3.63;2.30;;;;;;;22.12;nan;99163.47;5091034;28;20040;-57
2022/03/03 05:47:29;;;;;;;3.35;2.28;;;;;;;22.11;nan;99156.28;5072811;28;20446;-57
2022/03/03 05:49:56;;;;;;;3.28;2.30;;;;;;;22.08;nan;99159.88;5090705;28;20048;-56
2022/03/03 05:52:21;;;;;;;3.33;2.55;;;;;;;22.09;nan;99149.53;5090853;28;20054;-56
2022/03/03 05:54:47;;;;;;;3.72;2.40;;;;;;;22.10;nan;99156.69;5090837;28;20044;-56
2022/03/03 05:57:25;;;;;;;3.45;2.40;;;;;;;22.08;nan;99164.63;5090105;28;20043;-57
2022/03/03 05:59:51;;;;;;;3.50;2.28;;;;;;;22.09;nan;99153.13;5088770;28;20044;-57
2022/03/03 06:02:18;;;;;;;3.13;2.30;;;;;;;22.04;nan;99156.22;5090955;28;20047;-57
2022/03/03 06:04:45;;;;;;;3.90;2.72;;;;;;;22.07;nan;99154.63;5090608;28;20052;-57
2022/03/03 06:07:15;;;;;;;3.47;2.22;;;;;;;22.05;nan;99149.47;5090718;28;20040;-57
2022/03/03 06:09:42;;;;;;;2.97;2.13;;;;;;;22.08;nan;99154.31;5090471;28;20047;-57
2022/03/03 06:12:21;;;;;;;2.90;2.25;;;;;;;22.06;nan;99150.25;5090614;28;20081;-57
2022/03/03 06:14:52;;;;;;;3.20;2.30;;;;;;;22.09;nan;99158.69;5090654;28;20119;-57
2022/03/03 06:17:21;;;;;;;3.47;2.42;;;;;;;22.09;nan;99153.13;5090129;28;20500;-57
2022/03/03 06:19:49;;;;;;;3.45;2.50;;;;;;;22.09;nan;99149.53;5090385;28;20075;-56
2022/03/03 06:22:15;;;;;;;3.58;2.47;;;;;;;22.08;nan;99154.31;5090256;28;20052;-57
2022/03/03 06:24:40;;;;;;;3.35;2.42;;;;;;;22.09;nan;99155.09;5090087;28;20055;-56
2022/03/03 06:27:08;;;;;;;3.17;2.25;;;;;;;22.08;nan;99147.91;5089527;28;20036;-58
2022/03/03 06:29:34;;;;;;;3.25;2.42;;;;;;;22.09;nan;99152.31;5090204;28;20093;-58
2022/03/03 06:32:00;;;;;;;4.00;2.63;;;;;;;22.10;nan;99153.91;5090166;28;20115;-58
2022/03/03 06:34:26;;;;;;;3.33;2.55;;;;;;;22.10;nan;99156.69;5090142;28;20097;-58
2022/03/03 06:36:51;;;;;;;3.55;2.55;;;;;;;22.13;nan;99150.34;5089962;28;20036;-58
2022/03/03 06:39:17;;;;;;;3.58;2.60;;;;;;;22.57;nan;99146.53;5089994;28;20128;-58
2022/03/03 06:41:43;;;;;;;3.97;2.40;;;;;;;23.13;nan;99156.25;5089999;28;20484;-58
2022/03/03 06:44:08;;;;;;;3.53;1.92;;;;;;;23.79;nan;99151.09;5089846;28;20051;-59
2022/03/03 06:46:35;;;;;;;3.42;2.20;;;;;;;24.40;nan;99154.56;5086738;28;20040;-58
2022/03/03 06:49:00;;;;;;;3.85;2.40;;;;;;;24.33;nan;99157.38;5090190;28;20408;-59
2022/03/03 06:51:33;;;;;;;5.13;2.30;;;;;;;23.99;nan;99157.84;5089867;28;20496;-59
2022/03/03 06:54:02;;;;;;;3.17;2.30;;;;;;;23.66;nan;99155.50;5090001;28;20484;-58
2022/03/03 06:56:30;;;;;;;3.40;2.55;;;;;;;23.37;nan;99154.69;5089972;28;20040;-58
2022/03/03 06:58:57;;;;;;;3.80;2.17;;;;;;;23.15;nan;99145.53;5090093;28;20492;-58
2022/03/03 07:01:24;;;;;;;5.47;2.80;;;;;;;22.97;nan;99145.47;5089989;28;20044;-59
2022/03/03 07:03:50;;;;;;;3.55;2.28;;;;;;;22.86;nan;99150.22;5089788;28;20040;-59
2022/03/03 07:06:16;;;;;;;5.05;2.40;;;;;;;22.73;nan;99150.59;5089823;28;20047;-58
2022/03/03 07:08:42;;;;;;;3.95;2.28;;;;;;;22.66;nan;99155.34;5088544;28;20416;-59
2022/03/03 07:11:08;;;;;;;3.28;2.22;;;;;;;22.58;nan;99154.53;5089530;28;20040;-59
2022/03/03 07:13:33;;;;;;;3.50;2.33;;;;;;;22.55;nan;99151.72;5089595;28;20059;-58
2022/03/03 07:16:36;;;;;;;3.45;2.35;;;;;;;22.47;nan;99157.25;5088793;28;20058;-58
2022/03/03 07:19:04;;;;;;;4.70;2.70;;;;;;;22.45;nan;99151.28;5086347;28;20066;-59
2022/03/03 07:22:09;;;;;;;3.03;2.25;;;;;;;22.42;nan;99152.06;5089525;28;20044;-58
2022/03/03 07:24:45;;;;;;;3.55;2.60;;;;;;;22.38;nan;99153.25;4987420;28;20443;-58
2022/03/03 07:27:17;;;;;;;3.97;2.55;;;;;;;22.36;nan;99147.25;4987957;28;20038;-59
2022/03/03 07:29:47;;;;;;;3.38;2.50;;;;;;;22.35;nan;99152.03;4955340;28;20043;-58
2022/03/03 07:32:17;;;;;;;2.78;2.10;;;;;;;22.34;nan;99152.41;4987702;28;20050;-58
2022/03/03 07:34:49;;;;;;;3.53;2.58;;;;;;;22.33;nan;99153.63;4986990;28;20535;-58
2022/03/03 07:37:18;;;;;;;3.03;2.35;;;;;;;22.31;nan;99159.59;4968167;28;20411;-58
2022/03/03 07:39:45;;;;;;;3.50;2.42;;;;;;;22.32;nan;99157.59;4971803;28;20049;-58
2022/03/03 07:42:17;;;;;;;3.60;2.70;;;;;;;22.28;nan;99162.34;4964467;28;20492;-59
2022/03/03 07:44:44;;;;;;;4.88;2.95;;;;;;;22.29;nan;99161.97;4978234;28;20070;-58
2022/03/03 07:47:10;;;;;;;4.07;2.88;;;;;;;22.30;nan;99160.78;4977322;28;20061;-59
2022/03/03 07:49:37;;;;;;;7.85;2.85;;;;;;;22.29;nan;99164.75;4974575;28;20046;-56
2022/03/03 07:52:03;;;;;;;3.30;2.30;;;;;;;22.29;nan;99155.56;4979850;28;20045;-56
2022/03/03 07:54:29;;;;;;;4.03;2.83;;;;;;;22.26;nan;99159.94;4978234;28;20050;-56
2022/03/03 07:56:57;;;;;;;4.15;2.80;;;;;;;22.27;nan;99167.13;4985765;28;20057;-57
2022/03/03 07:59:27;;;;;;;4.43;3.00;;;;;;;22.26;nan;99159.94;4996853;28;20052;-56
2022/03/03 08:01:54;;;;;;;6.80;2.55;;;;;;;22.25;nan;99158.34;5076919;28;20064;-56
2022/03/03 08:04:24;;;;;;;3.80;2.60;;;;;;;22.24;nan;99154.78;5074419;28;20037;-56
2022/03/03 08:06:52;;;;;;;4.43;2.95;;;;;;;22.25;nan;99155.56;5072040;28;20070;-57
2022/03/03 08:09:20;;;;;;;3.92;2.60;;;;;;;22.26;nan;99151.59;5075810;28;20131;-56
2022/03/03 08:11:46;;;;;;;3.78;2.80;;;;;;;22.27;nan;99152.38;5074953;28;20440;-56
2022/03/03 08:14:12;;;;;;;4.57;2.95;;;;;;;22.27;nan;99146.81;5075930;28;20068;-56
2022/03/03 08:16:38;;;;;;;5.13;2.75;;;;;;;22.25;nan;99142.44;5072412;28;20064;-57
2022/03/03 08:19:05;;;;;;;7.15;2.83;;;;;;;22.26;nan;99140.44;5076209;28;20080;-57
2022/03/03 08:21:31;;;;;;;6.75;2.85;;;;;;;22.25;nan;99147.22;5077731;28;20044;-57
2022/03/03 08:24:02;;;;;;;5.45;3.20;;;;;;;22.24;nan;99151.19;5076047;28;20080;-56
2022/03/03 08:26:29;;;;;;;6.30;2.95;;;;;;;22.23;nan;99155.97;5075136;28;20094;-56
2022/03/03 08:28:54;;;;;;;4.95;2.72;;;;;;;22.23;nan;99152.38;5078069;28;20102;-57
2022/03/03 08:31:32;;;;;;;4.03;2.80;;;;;;;22.22;nan;99148.00;5078591;28;20048;-56
2022/03/03 08:34:10;;;;;;;3.65;2.55;;;;;;;22.24;nan;99153.97;5079064;28;20040;-56
2022/03/03 08:36:46;;;;;;;4.20;3.00;;;;;;;22.24;nan;99152.00;5076502;28;20036;-56
2022/03/03 08:39:15;;;;;;;4.32;3.10;;;;;;;22.24;nan;99149.22;5077834;28;20139;-57
2022/03/03 08:41:43;;;;;;;4.18;3.10;;;;;;;22.25;nan;99142.44;5078430;28;20040;-57
2022/03/03 08:44:10;;;;;;;3.75;2.80;;;;;;;22.27;nan;99139.25;5078078;28;20412;-56
2022/03/03 08:46:39;;;;;;;4.38;3.10;;;;;;;22.26;nan;99140.44;5079931;28;20408;-57
2022/03/03 08:49:08;;;;;;;3.67;2.53;;;;;;;22.22;nan;99146.03;5074112;28;20040;-57
2022/03/03 08:51:33;;;;;;;4.03;3.10;;;;;;;22.25;nan;99139.66;5078043;28;20067;-57
2022/03/03 08:53:59;;;;;;;9.77;3.10;;;;;;;22.27;nan;99135.66;5077106;28;20067;-57
2022/03/03 08:56:25;;;;;;;4.78;2.75;;;;;;;22.27;nan;99135.66;5076362;28;20048;-57
2022/03/03 08:58:52;;;;;;;4.18;2.92;;;;;;;22.27;nan;99130.09;5076779;28;20051;-57
2022/03/03 09:01:18;;;;;;;4.18;2.63;;;;;;;22.22;nan;99126.53;5077270;28;20047;-58
2022/03/03 09:03:44;;;;;;;4.25;2.80;;;;;;;22.24;nan;99117.75;5075365;28;20060;-57
2022/03/03 09:06:19;;;;;;;4.57;3.13;;;;;;;22.26;nan;99126.53;5075586;28;20060;-57
2022/03/03 09:08:45;;;;;;;5.80;3.03;;;;;;;22.25;nan;99119.34;5079238;28;20048;-58
2022/03/03 09:11:11;;;;;;;6.43;3.25;;;;;;;22.25;nan;99122.13;5077464;28;20077;-57
2022/03/03 09:13:36;;;;;;;3.88;2.90;;;;;;;22.22;nan;99117.38;5077937;28;20051;-57
2022/03/03 09:16:03;;;;;;;6.57;2.88;;;;;;;22.25;nan;99124.94;5072364;28;20183;-57
2022/03/03 09:18:28;;;;;;;4.65;2.80;;;;;;;22.25;nan;99111.78;5076673;28;20426;-57
2022/03/03 09:20:54;;;;;;;6.43;3.28;;;;;;;22.23;nan;99105.81;5078339;28;20056;-57
2022/03/03 09:23:20;;;;;;;7.20;2.97;;;;;;;22.22;nan;99095.88;5078267;28;20039;-56
2022/03/03 09:25:45;;;;;;;4.00;3.22;;;;;;;22.24;nan;99103.84;5076376;28;20090;-56
2022/03/03 09:28:11;;;;;;;5.15;3.13;;;;;;;22.22;nan;99090.31;5075237;28;20036;-56
2022/03/03 09:30:37;;;;;;;4.13;3.13;;;;;;;22.21;nan;99096.25;5075272;28;20037;-57
2022/03/03 09:33:03;;;;;;;4.70;3.40;;;;;;;22.21;nan;99094.25;5076517;28;20040;-57
2022/03/03 09:35:29;;;;;;;4.70;2.97;;;;;;;22.23;nan;99091.09;5076712;28;20081;-56
2022/03/03 09:37:54;;;;;;;5.15;3.38;;;;;;;22.23;nan;99091.91;5113920;28;20054;-57
2022/03/03 09:40:20;;;;;;;4.85;3.58;;;;;;;22.24;nan;99090.69;5125458;28;20037;-57
2022/03/03 09:43:01;;;;;;;4.70;3.20;;;;;;;22.22;nan;99086.72;5127373;28;20088;-57
2022/03/03 09:45:28;;;;;;;6.22;2.80;;;;;;;22.23;nan;99085.53;5121348;28;20158;-56
2022/03/03 09:47:54;;;;;;;4.22;3.13;;;;;;;22.20;nan;99084.31;5126149;28;20122;-56
2022/03/03 09:50:21;;;;;;;3.97;2.67;;;;;;;22.18;nan;99083.91;5125429;28;20561;-56
2022/03/03 09:52:47;;;;;;;4.90;3.10;;;;;;;22.21;nan;99082.31;5123753;28;20043;-55
2022/03/03 09:55:12;;;;;;;4.60;2.90;;;;;;;22.20;nan;99089.88;5123918;28;20465;-56
2022/03/03 09:57:38;;;;;;;3.60;2.58;;;;;;;22.20;nan;99089.06;5115188;28;20036;-56
2022/03/03 10:00:09;;;;;;;4.35;3.20;;;;;;;22.20;nan;99084.31;5105948;28;20042;-58
2022/03/03 10:02:56;;;;;;;3.78;2.65;;;;;;;22.20;nan;99086.28;5120538;28;20414;-60
2022/03/03 10:05:29;;;;;;;4.72;2.90;;;;;;;22.17;nan;99073.97;5118138;28;20052;-61
2022/03/03 10:08:06;;;;;;;8.82;3.20;;;;;;;22.19;nan;99084.69;5125517;28;20063;-58
2022/03/03 10:10:33;;;;;;;5.68;3.10;;;;;;;22.21;nan;99082.31;5125024;28;20046;-58
2022/03/03 10:12:59;;;;;;;6.13;2.85;;;;;;;22.21;nan;99073.97;5125167;28;20027;-59
2022/03/03 10:15:26;;;;;;;7.85;2.92;;;;;;;22.23;nan;99072.38;5120419;28;20099;-59
2022/03/03 10:17:59;;;;;;;6.72;2.90;;;;;;;22.22;nan;99064.44;5123850;28;20074;-59
2022/03/03 10:20:24;;;;;;;;;;;;;;;22.27;nan;99066.03;5120629;28;20055;-61
2022/03/03 10:22:59;;;;;;;8.80;3.22;;;;;;;22.24;nan;99064.81;5128064;28;20001;-60
2022/03/03 10:25:34;;;;;;;10.85;2.90;;;;;;;22.20;nan;99062.00;5126333;28;20139;-58
2022/03/03 10:28:10;;;;;;;14.35;2.83;;;;;;;22.19;nan;99065.19;5123718;28;20140;-61
2022/03/03 10:31:01;;;;;;;13.35;2.78;;;;;;;22.16;nan;99052.88;5126326;28;20534;-58
2022/03/03 10:33:29;;;;;;;8.48;2.60;;;;;;;22.18;nan;99055.25;5124896;28;20053;-58
2022/03/03 10:36:26;;;;;;;5.97;2.95;;;;;;;22.17;nan;99059.22;5125563;28;20057;-58
2022/03/03 10:39:03;;;;;;;6.03;2.83;;;;;;;22.15;nan;99054.06;5127269;28;20618;-59
2022/03/03 10:41:33;;;;;;;4.10;2.60;;;;;;;22.14;nan;99051.66;5124963;28;20031;-58
2022/03/03 10:44:03;;;;;;;17.00;2.58;;;;;;;22.13;nan;99047.25;5121829;27;20058;-58
2022/03/03 10:46:30;;;;;;;6.70;2.80;;;;;;;22.10;nan;99037.72;5128461;28;20133;-58
2022/03/03 10:48:56;;;;;;;4.20;2.78;;;;;;;22.13;nan;99038.91;5129482;28;20035;-59
2022/03/03 10:51:24;;;;;;;4.25;2.63;;;;;;;22.08;nan;99036.50;5117810;28;20046;-58
2022/03/03 10:53:55;;;;;;;5.57;2.70;;;;;;;22.09;nan;99032.53;5118304;28;20064;-58
2022/03/03 10:56:20;;;;;;;6.18;2.80;;;;;;;22.10;nan;99036.91;5124298;28;20035;-59
2022/03/03 10:58:59;;;;;;;6.18;2.38;;;;;;;22.08;nan;99033.72;5127268;28;20384;-58
2022/03/03 11:01:28;;;;;;;4.22;2.60;;;;;;;22.06;nan;99022.13;5126401;28;20118;-58
2022/03/03 11:03:53;;;;;;;3.65;2.30;;;;;;;22.07;nan;99023.72;5125522;28;20046;-58
2022/03/03 11:06:26;;;;;;;5.15;3.17;;;;;;;22.06;nan;99017.38;5125977;28;20043;-58
2022/03/03 11:08:53;;;;;;;6.07;2.40;;;;;;;22.13;nan;99013.84;5124008;28;20042;-58
2022/03/03 11:11:20;;;;;;;5.32;2.10;;;;;;;22.14;nan;99012.66;5116378;28;20405;-58
2022/03/03 11:13:49;;;;;;;4.18;2.55;;;;;;;22.10;nan;99006.28;5114091;28;20360;-58
2022/03/03 11:16:21;;;;;;;5.70;2.40;;;;;;;22.07;nan;99005.03;5115324;28;20527;-58
2022/03/03 11:18:47;;;;;;;7.57;2.72;;;;;;;22.07;nan;99012.59;5118329;28;20125;-58
2022/03/03 11:21:13;;;;;;;3.65;2.40;;;;;;;22.04;nan;99005.03;5116843;28;20039;-58
2022/03/03 11:23:44;;;;;;;4.63;1.98;;;;;;;22.04;nan;99002.25;5116383;28;20039;-58
2022/03/03 11:26:20;;;;;;;7.07;2.70;;;;;;;22.01;nan;98997.47;5120940;28;20055;-58
2022/03/03 11:29:00;;;;;;;3.95;2.28;;;;;;;22.00;nan;98991.09;5110748;28;20100;-58
2022/03/03 11:31:31;;;;;;;3.95;2.35;;;;;;;21.98;nan;98991.50;5123051;28;20088;-58
2022/03/03 11:34:30;;;;;;;4.53;2.45;;;;;;;21.97;nan;98987.13;5117729;28;20514;-58
2022/03/03 11:37:08;;;;;;;3.97;2.10;;;;;;;21.95;nan;98983.94;5116854;28;20048;-58
2022/03/03 11:39:39;;;;;;;8.30;2.58;;;;;;;21.94;nan;98979.56;5128172;28;20058;-58
2022/03/03 11:42:23;;;;;;;3.17;2.10;;;;;;;21.91;nan;98980.31;5130099;28;20043;-58
2022/03/03 11:44:51;;;;;;;4.85;2.13;;;;;;;21.90;nan;98967.59;5130034;28;20087;-58
2022/03/03 11:47:31;;;;;;;3.42;2.13;;;;;;;21.89;nan;98957.66;5130318;28;20547;-58
2022/03/03 11:50:17;;;;;;;3.08;2.05;;;;;;;21.89;nan;98954.88;5130204;28;20043;-58
2022/03/03 11:52:51;;;;;;;4.10;2.30;;;;;;;21.89;nan;98946.50;5115344;28;20099;-58
2022/03/03 11:55:32;;;;;;;3.92;2.40;;;;;;;21.89;nan;98946.50;5132105;27;20410;-57
2022/03/03 11:58:15;;;;;;;3.35;2.22;;;;;;;21.88;nan;98941.34;5133733;28;20048;-58